sensor_id;sensor_type;location;lat;lon;timestamp;pressure;altitude;pressure_sealevel;temperature;humidity
48614;BME280;34408;51.426;5.444;2024-03-07T00:00:06;102469.50;;;9.90;61.86
48614;BME280;34408;51.426;5.444;2024-03-07T00:02:41;102465.34;;;9.88;61.77
48614;BME280;34408;51.426;5.444;2024-03-07T00:05:10;102474.56;;;9.85;61.98
48614;BME280;34408;51.426;5.444;2024-03-07T00:07:40;102477.44;;;9.84;61.86
48614;BME280;34408;51.426;5.444;2024-03-07T00:10:10;102455.88;;;9.69;61.65
48614;BME280;34408;51.426;5.444;2024-03-07T00:12:39;102451.69;;;9.66;61.84
48614;BME280;34408;51.426;5.444;2024-03-07T00:15:09;102472.28;;;9.74;61.78
48614;BME280;34408;51.426;5.444;2024-03-07T00:17:38;102473.47;;;9.71;61.84
48614;BME280;34408;51.426;5.444;2024-03-07T00:20:07;102473.47;;;9.71;61.91
48614;BME280;34408;51.426;5.444;2024-03-07T00:22:41;102474.66;;;9.69;61.91
48614;BME280;34408;51.426;5.444;2024-03-07T00:25:11;102470.00;;;9.63;62.38
48614;BME280;34408;51.426;5.444;2024-03-07T00:27:41;102469.66;;;9.66;62.38
48614;BME280;34408;51.426;5.444;2024-03-07T00:30:12;102474.34;;;9.64;62.08
48614;BME280;34408;51.426;5.444;2024-03-07T00:32:45;102466.47;;;9.62;62.39
48614;BME280;34408;51.426;5.444;2024-03-07T00:35:14;102462.78;;;9.63;62.10
48614;BME280;34408;51.426;5.444;2024-03-07T00:37:42;102473.53;;;9.63;62.24
48614;BME280;34408;51.426;5.444;2024-03-07T00:40:12;102466.66;;;9.61;61.93
48614;BME280;34408;51.426;5.444;2024-03-07T00:42:40;102470.34;;;9.60;62.15
48614;BME280;34408;51.426;5.444;2024-03-07T00:45:08;102465.00;;;9.60;62.42
48614;BME280;34408;51.426;5.444;2024-03-07T00:47:36;102464.63;;;9.63;62.15
48614;BME280;34408;51.426;5.444;2024-03-07T00:50:05;102461.78;;;9.64;62.31
48614;BME280;34408;51.426;5.444;2024-03-07T00:52:35;102467.81;;;9.66;62.21
48614;BME280;34408;51.426;5.444;2024-03-07T00:55:04;102462.44;;;9.66;62.02
48614;BME280;34408;51.426;5.444;2024-03-07T00:57:36;102458.06;;;9.65;61.89
48614;BME280;34408;51.426;5.444;2024-03-07T01:00:05;102457.06;;;9.66;62.13
48614;BME280;34408;51.426;5.444;2024-03-07T01:02:39;102455.41;;;9.65;62.18
48614;BME280;34408;51.426;5.444;2024-03-07T01:05:10;102454.56;;;9.65;62.13
48614;BME280;34408;51.426;5.444;2024-03-07T01:07:40;102447.53;;;9.64;61.97
48614;BME280;34408;51.426;5.444;2024-03-07T01:10:09;102448.53;;;9.63;62.04
48614;BME280;34408;51.426;5.444;2024-03-07T01:12:40;102447.03;;;9.60;61.85
48614;BME280;34408;51.426;5.444;2024-03-07T01:15:10;102442.00;;;9.57;62.13
48614;BME280;34408;51.426;5.444;2024-03-07T01:17:39;102439.50;;;9.56;62.25
48614;BME280;34408;51.426;5.444;2024-03-07T01:20:08;102451.44;;;9.53;62.26
48614;BME280;34408;51.426;5.444;2024-03-07T01:22:38;102447.25;;;9.51;62.38
48614;BME280;34408;51.426;5.444;2024-03-07T01:25:06;102450.13;;;9.49;62.55
48614;BME280;34408;51.426;5.444;2024-03-07T01:27:34;102437.88;;;9.46;62.60
48614;BME280;34408;51.426;5.444;2024-03-07T01:30:04;102430.34;;;9.42;62.29
48614;BME280;34408;51.426;5.444;2024-03-07T01:32:34;102424.31;;;9.40;62.77
48614;BME280;34408;51.426;5.444;2024-03-07T01:35:03;102432.56;;;9.38;62.38
48614;BME280;34408;51.426;5.444;2024-03-07T01:37:33;102431.06;;;9.36;62.61
48614;BME280;34408;51.426;5.444;2024-03-07T01:40:01;102429.56;;;9.33;62.73
48614;BME280;34408;51.426;5.444;2024-03-07T01:42:29;102422.22;;;9.27;63.08
48614;BME280;34408;51.426;5.444;2024-03-07T01:44:57;102425.56;;;9.29;63.07
48614;BME280;34408;51.426;5.444;2024-03-07T01:47:27;102420.53;;;9.26;63.11
48614;BME280;34408;51.426;5.444;2024-03-07T01:49:55;102426.06;;;9.25;63.18
48614;BME280;34408;51.426;5.444;2024-03-07T01:52:25;102424.41;;;9.24;62.73
48614;BME280;34408;51.426;5.444;2024-03-07T01:54:53;102423.56;;;9.23;62.85
48614;BME280;34408;51.426;5.444;2024-03-07T01:57:22;102417.53;;;9.21;63.12
48614;BME280;34408;51.426;5.444;2024-03-07T01:59:50;102412.19;;;9.21;62.76
48614;BME280;34408;51.426;5.444;2024-03-07T02:02:19;102405.50;;;9.17;62.79
48614;BME280;34408;51.426;5.444;2024-03-07T02:04:48;102409.84;;;9.18;62.82
48614;BME280;34408;51.426;5.444;2024-03-07T02:07:16;102416.03;;;9.19;62.77
48614;BME280;34408;51.426;5.444;2024-03-07T02:09:44;102420.56;;;9.18;62.81
48614;BME280;34408;51.426;5.444;2024-03-07T02:12:12;102407.34;;;9.17;63.10
48614;BME280;34408;51.426;5.444;2024-03-07T02:14:40;102413.72;;;9.16;63.15
48614;BME280;34408;51.426;5.444;2024-03-07T02:17:08;102413.03;;;9.13;62.93
48614;BME280;34408;51.426;5.444;2024-03-07T02:19:36;102406.00;;;9.12;62.96
48614;BME280;34408;51.426;5.444;2024-03-07T02:22:06;102408.69;;;9.12;63.14
48614;BME280;34408;51.426;5.444;2024-03-07T02:24:34;102402.50;;;9.12;62.82
48614;BME280;34408;51.426;5.444;2024-03-07T02:27:02;102398.97;;;9.11;63.14
48614;BME280;34408;51.426;5.444;2024-03-07T02:29:30;102395.28;;;9.12;62.90
48614;BME280;34408;51.426;5.444;2024-03-07T02:31:58;102391.59;;;9.13;63.02
48614;BME280;34408;51.426;5.444;2024-03-07T02:34:26;102390.41;;;9.16;63.20
48614;BME280;34408;51.426;5.444;2024-03-07T02:36:54;102388.56;;;9.17;62.97
48614;BME280;34408;51.426;5.444;2024-03-07T02:39:23;102394.94;;;9.16;62.64
48614;BME280;34408;51.426;5.444;2024-03-07T02:41:52;102386.88;;;9.16;62.98
48614;BME280;34408;51.426;5.444;2024-03-07T02:44:20;102392.91;;;9.18;62.48
48614;BME280;34408;51.426;5.444;2024-03-07T02:46:49;102389.56;;;9.16;62.66
48614;BME280;34408;51.426;5.444;2024-03-07T02:49:16;102387.06;;;9.14;62.94
48614;BME280;34408;51.426;5.444;2024-03-07T02:51:45;102384.72;;;9.11;63.15
48614;BME280;34408;51.426;5.444;2024-03-07T02:54:13;102377.03;;;9.08;62.82
48614;BME280;34408;51.426;5.444;2024-03-07T02:56:42;102385.91;;;9.08;62.59
48614;BME280;34408;51.426;5.444;2024-03-07T02:59:12;102389.25;;;9.10;63.03
48614;BME280;34408;51.426;5.444;2024-03-07T03:01:40;102390.25;;;9.09;62.97
48614;BME280;34408;51.426;5.444;2024-03-07T03:04:09;102385.25;;;9.06;63.11
48614;BME280;34408;51.426;5.444;2024-03-07T03:06:37;102389.94;;;9.04;63.22
48614;BME280;34408;51.426;5.444;2024-03-07T03:09:05;102384.75;;;9.03;62.84
48614;BME280;34408;51.426;5.444;2024-03-07T03:11:39;102384.09;;;9.01;62.76
48614;BME280;34408;51.426;5.444;2024-03-07T03:14:09;102373.38;;;9.01;63.18
48614;BME280;34408;51.426;5.444;2024-03-07T03:16:41;102378.06;;;8.99;62.98
48614;BME280;34408;51.426;5.444;2024-03-07T03:19:14;102371.38;;;8.95;62.83
48614;BME280;34408;51.426;5.444;2024-03-07T03:21:42;102372.56;;;8.92;62.80
48614;BME280;34408;51.426;5.444;2024-03-07T03:24:10;102366.72;;;8.89;62.94
48614;BME280;34408;51.426;5.444;2024-03-07T03:26:38;102371.06;;;8.90;63.10
48614;BME280;34408;51.426;5.444;2024-03-07T03:29:08;102371.91;;;8.90;63.35
48614;BME280;34408;51.426;5.444;2024-03-07T03:31:38;102351.66;;;8.79;62.78
48614;BME280;34408;51.426;5.444;2024-03-07T03:34:07;102368.56;;;8.88;63.08
48614;BME280;34408;51.426;5.444;2024-03-07T03:36:36;102359.69;;;8.88;62.63
48614;BME280;34408;51.426;5.444;2024-03-07T03:39:05;102355.34;;;8.87;63.06
48614;BME280;34408;51.426;5.444;2024-03-07T03:41:34;102358.84;;;8.87;62.95
48614;BME280;34408;51.426;5.444;2024-03-07T03:44:02;102353.47;;;8.87;62.86
48614;BME280;34408;51.426;5.444;2024-03-07T03:46:31;102353.31;;;8.89;63.06
48614;BME280;34408;51.426;5.444;2024-03-07T03:48:59;102357.84;;;8.88;62.76
48614;BME280;34408;51.426;5.444;2024-03-07T03:51:28;102362.53;;;8.86;62.87
48614;BME280;34408;51.426;5.444;2024-03-07T03:53:56;102363.53;;;8.85;62.35
48614;BME280;34408;51.426;5.444;2024-03-07T03:56:24;102362.53;;;8.86;62.99
48614;BME280;34408;51.426;5.444;2024-03-07T03:58:53;102359.19;;;8.84;62.54
48614;BME280;34408;51.426;5.444;2024-03-07T04:01:21;102362.03;;;8.82;62.49
48614;BME280;34408;51.426;5.444;2024-03-07T04:03:51;102361.22;;;8.82;62.72
48614;BME280;34408;51.426;5.444;2024-03-07T04:06:19;102357.69;;;8.81;62.60
48614;BME280;34408;51.426;5.444;2024-03-07T04:08:47;102343.63;;;8.79;62.54
48614;BME280;34408;51.426;5.444;2024-03-07T04:11:15;102350.00;;;8.78;62.67
48614;BME280;34408;51.426;5.444;2024-03-07T04:13:45;102351.19;;;8.76;62.86
48614;BME280;34408;51.426;5.444;2024-03-07T04:16:14;102354.53;;;8.78;62.79
48614;BME280;34408;51.426;5.444;2024-03-07T04:18:42;102360.91;;;8.77;62.47
48614;BME280;34408;51.426;5.444;2024-03-07T04:21:11;102356.38;;;8.77;62.85
48614;BME280;34408;51.426;5.444;2024-03-07T04:23:40;102345.81;;;8.76;62.40
48614;BME280;34408;51.426;5.444;2024-03-07T04:26:08;102351.00;;;8.77;62.43
48614;BME280;34408;51.426;5.444;2024-03-07T04:28:35;102349.34;;;8.76;62.67
48614;BME280;34408;51.426;5.444;2024-03-07T04:31:03;102359.22;;;8.76;62.17
48614;BME280;34408;51.426;5.444;2024-03-07T04:33:31;102351.34;;;8.74;62.85
48614;BME280;34408;51.426;5.444;2024-03-07T04:36:00;102363.91;;;8.74;62.80
48614;BME280;34408;51.426;5.444;2024-03-07T04:38:31;102358.56;;;8.74;61.92
48614;BME280;34408;51.426;5.444;2024-03-07T04:40:59;102355.22;;;8.72;62.45
48614;BME280;34408;51.426;5.444;2024-03-07T04:43:27;102353.38;;;8.72;62.30
48614;BME280;34408;51.426;5.444;2024-03-07T04:45:55;102351.69;;;8.71;62.58
48614;BME280;34408;51.426;5.444;2024-03-07T04:48:23;102352.38;;;8.73;62.30
48614;BME280;34408;51.426;5.444;2024-03-07T04:50:51;102356.22;;;8.71;62.26
48614;BME280;34408;51.426;5.444;2024-03-07T04:53:19;102347.53;;;8.69;61.90
48614;BME280;34408;51.426;5.444;2024-03-07T04:55:48;102341.50;;;8.67;62.52
48614;BME280;34408;51.426;5.444;2024-03-07T04:58:17;102346.84;;;8.67;62.45
48614;BME280;34408;51.426;5.444;2024-03-07T05:00:45;102341.69;;;8.65;62.67
48614;BME280;34408;51.426;5.444;2024-03-07T05:03:13;102346.06;;;8.66;62.64
48614;BME280;34408;51.426;5.444;2024-03-07T05:05:41;102337.34;;;8.64;62.43
48614;BME280;34408;51.426;5.444;2024-03-07T05:08:09;102347.41;;;8.62;62.13
48614;BME280;34408;51.426;5.444;2024-03-07T05:10:38;102340.19;;;8.63;62.29
48614;BME280;34408;51.426;5.444;2024-03-07T05:13:09;102346.75;;;8.60;62.56
48614;BME280;34408;51.426;5.444;2024-03-07T05:15:38;102340.53;;;8.60;62.09
48614;BME280;34408;51.426;5.444;2024-03-07T05:18:06;102322.81;;;8.51;61.87
48614;BME280;34408;51.426;5.444;2024-03-07T05:20:39;102345.91;;;8.60;62.08
48614;BME280;34408;51.426;5.444;2024-03-07T05:23:07;102341.72;;;8.57;61.88
48614;BME280;34408;51.426;5.444;2024-03-07T05:25:38;102339.03;;;8.57;62.23
48614;BME280;34408;51.426;5.444;2024-03-07T05:28:06;102341.06;;;8.55;61.88
48614;BME280;34408;51.426;5.444;2024-03-07T05:30:37;102335.53;;;8.57;62.23
48614;BME280;34408;51.426;5.444;2024-03-07T05:33:05;102341.06;;;8.55;61.76
48614;BME280;34408;51.426;5.444;2024-03-07T05:35:33;102335.69;;;8.55;62.12
48614;BME280;34408;51.426;5.444;2024-03-07T05:38:02;102346.59;;;8.54;62.18
48614;BME280;34408;51.426;5.444;2024-03-07T05:40:31;102339.56;;;8.53;62.16
48614;BME280;34408;51.426;5.444;2024-03-07T05:43:00;102348.59;;;8.52;62.21
48614;BME280;34408;51.426;5.444;2024-03-07T05:45:28;102337.22;;;8.50;62.39
48614;BME280;34408;51.426;5.444;2024-03-07T05:47:57;102340.25;;;8.46;62.22
48614;BME280;34408;51.426;5.444;2024-03-07T05:50:41;102337.91;;;8.43;61.83
48614;BME280;34408;51.426;5.444;2024-03-07T05:53:13;102344.28;;;8.42;62.54
48614;BME280;34408;51.426;5.444;2024-03-07T05:55:41;102340.94;;;8.40;62.02
48614;BME280;34408;51.426;5.444;2024-03-07T05:58:09;102342.94;;;8.38;62.48
48614;BME280;34408;51.426;5.444;2024-03-07T06:00:37;102345.63;;;8.38;61.69
48614;BME280;34408;51.426;5.444;2024-03-07T06:03:08;102341.28;;;8.37;62.18
48614;BME280;34408;51.426;5.444;2024-03-07T06:05:36;102342.28;;;8.36;62.34
48614;BME280;34408;51.426;5.444;2024-03-07T06:08:04;102347.81;;;8.35;62.09
48614;BME280;34408;51.426;5.444;2024-03-07T06:10:33;102337.94;;;8.35;62.48
48614;BME280;34408;51.426;5.444;2024-03-07T06:13:01;102338.94;;;8.34;62.20
48614;BME280;34408;51.426;5.444;2024-03-07T06:15:37;102340.06;;;8.32;62.27
48614;BME280;34408;51.426;5.444;2024-03-07T06:18:06;102342.09;;;8.30;62.28
48614;BME280;34408;51.426;5.444;2024-03-07T06:20:36;102344.78;;;8.30;62.40
48614;BME280;34408;51.426;5.444;2024-03-07T06:23:05;102344.94;;;8.28;61.60
48614;BME280;34408;51.426;5.444;2024-03-07T06:25:33;102341.91;;;8.31;62.10
48614;BME280;34408;51.426;5.444;2024-03-07T06:28:04;102342.25;;;8.28;62.23
48614;BME280;34408;51.426;5.444;2024-03-07T06:30:39;102342.25;;;8.28;62.22
48614;BME280;34408;51.426;5.444;2024-03-07T06:33:07;102348.44;;;8.29;61.92
48614;BME280;34408;51.426;5.444;2024-03-07T06:35:37;102338.41;;;8.31;61.76
48614;BME280;34408;51.426;5.444;2024-03-07T06:38:06;102332.38;;;8.29;61.71
48614;BME280;34408;51.426;5.444;2024-03-07T06:40:35;102341.41;;;8.28;62.34
48614;BME280;34408;51.426;5.444;2024-03-07T06:43:03;102342.59;;;8.25;61.67
48614;BME280;34408;51.426;5.444;2024-03-07T06:45:33;102336.41;;;8.25;61.75
48614;BME280;34408;51.426;5.444;2024-03-07T06:48:03;102340.09;;;8.24;62.13
48614;BME280;34408;51.426;5.444;2024-03-07T06:50:31;102335.56;;;8.24;62.35
48614;BME280;34408;51.426;5.444;2024-03-07T06:53:06;102342.78;;;8.24;61.56
48614;BME280;34408;51.426;5.444;2024-03-07T06:55:35;102345.44;;;8.24;62.29
48614;BME280;34408;51.426;5.444;2024-03-07T06:58:03;102335.06;;;8.21;62.18
48614;BME280;34408;51.426;5.444;2024-03-07T07:00:32;102342.44;;;8.19;62.65
48614;BME280;34408;51.426;5.444;2024-03-07T07:03:04;102337.91;;;8.19;62.19
48614;BME280;34408;51.426;5.444;2024-03-07T07:05:33;102322.69;;;8.11;61.85
48614;BME280;34408;51.426;5.444;2024-03-07T07:08:03;102338.09;;;8.18;62.43
48614;BME280;34408;51.426;5.444;2024-03-07T07:10:34;102338.09;;;8.18;61.76
48614;BME280;34408;51.426;5.444;2024-03-07T07:13:03;102315.19;;;8.07;61.79
48614;BME280;34408;51.426;5.444;2024-03-07T07:15:31;102336.25;;;8.18;61.82
48614;BME280;34408;51.426;5.444;2024-03-07T07:17:58;102336.41;;;8.16;61.59
48614;BME280;34408;51.426;5.444;2024-03-07T07:20:29;102332.06;;;8.15;62.85
48614;BME280;34408;51.426;5.444;2024-03-07T07:22:57;102326.03;;;8.13;62.48
48614;BME280;34408;51.426;5.444;2024-03-07T07:25:27;102330.72;;;8.11;62.01
48614;BME280;34408;51.426;5.444;2024-03-07T07:27:57;102333.41;;;8.11;61.86
48614;BME280;34408;51.426;5.444;2024-03-07T07:30:25;102335.25;;;8.11;61.53
48614;BME280;34408;51.426;5.444;2024-03-07T07:32:54;102332.41;;;8.12;62.20
48614;BME280;34408;51.426;5.444;2024-03-07T07:35:22;102332.75;;;8.09;62.20
48614;BME280;34408;51.426;5.444;2024-03-07T07:37:52;102334.41;;;8.10;62.16
48614;BME280;34408;51.426;5.444;2024-03-07T07:40:23;102317.88;;;7.99;61.96
48614;BME280;34408;51.426;5.444;2024-03-07T07:42:54;102311.84;;;7.97;62.13
48614;BME280;34408;51.426;5.444;2024-03-07T07:45:24;102331.91;;;8.09;62.47
48614;BME280;34408;51.426;5.444;2024-03-07T07:47:53;102328.41;;;8.08;61.95
48614;BME280;34408;51.426;5.444;2024-03-07T07:50:23;102328.22;;;8.10;61.96
48614;BME280;34408;51.426;5.444;2024-03-07T07:52:53;102320.69;;;8.05;62.53
48614;BME280;34408;51.426;5.444;2024-03-07T07:55:22;102326.22;;;8.12;62.27
48614;BME280;34408;51.426;5.444;2024-03-07T07:57:52;102322.88;;;8.10;62.14
48614;BME280;34408;51.426;5.444;2024-03-07T08:00:20;102320.84;;;8.12;62.04
48614;BME280;34408;51.426;5.444;2024-03-07T08:02:52;102322.69;;;8.11;62.23
48614;BME280;34408;51.426;5.444;2024-03-07T08:05:22;102320.03;;;8.11;62.25
48614;BME280;34408;51.426;5.444;2024-03-07T08:07:51;102330.56;;;8.13;62.08
48614;BME280;34408;51.426;5.444;2024-03-07T08:10:20;102317.34;;;8.11;62.13
48614;BME280;34408;51.426;5.444;2024-03-07T08:12:49;102317.34;;;8.11;61.79
48614;BME280;34408;51.426;5.444;2024-03-07T08:15:19;102321.53;;;8.14;62.17
48614;BME280;34408;51.426;5.444;2024-03-07T08:17:47;102318.00;;;8.13;61.62
48614;BME280;34408;51.426;5.444;2024-03-07T08:20:19;102319.69;;;8.14;61.58
48614;BME280;34408;51.426;5.444;2024-03-07T08:22:49;102314.50;;;8.13;62.36
48614;BME280;34408;51.426;5.444;2024-03-07T08:25:20;102309.81;;;8.15;62.10
48614;BME280;34408;51.426;5.444;2024-03-07T08:27:51;102319.19;;;8.11;62.40
48614;BME280;34408;51.426;5.444;2024-03-07T08:30:19;102317.69;;;8.08;61.91
48614;BME280;34408;51.426;5.444;2024-03-07T08:32:48;102285.91;;;7.89;62.00
48614;BME280;34408;51.426;5.444;2024-03-07T08:35:19;102315.00;;;8.08;62.02
48614;BME280;34408;51.426;5.444;2024-03-07T08:37:48;102312.34;;;8.08;62.71
48614;BME280;34408;51.426;5.444;2024-03-07T08:40:21;102307.31;;;8.05;61.59
48614;BME280;34408;51.426;5.444;2024-03-07T08:42:55;102310.81;;;8.06;61.97
48614;BME280;34408;51.426;5.444;2024-03-07T08:45:24;102303.47;;;8.08;61.91
48614;BME280;34408;51.426;5.444;2024-03-07T08:47:54;102308.81;;;8.08;61.79
48614;BME280;34408;51.426;5.444;2024-03-07T08:50:25;102292.94;;;7.98;62.24
48614;BME280;34408;51.426;5.444;2024-03-07T08:52:54;102309.31;;;8.11;62.53
48614;BME280;34408;51.426;5.444;2024-03-07T08:55:24;102300.44;;;8.11;62.38
48614;BME280;34408;51.426;5.444;2024-03-07T08:57:53;102303.13;;;8.11;62.34
48614;BME280;34408;51.426;5.444;2024-03-07T09:00:22;102302.28;;;8.10;62.27
48614;BME280;34408;51.426;5.444;2024-03-07T09:02:54;102286.75;;;7.98;62.66
48614;BME280;34408;51.426;5.444;2024-03-07T09:05:27;102277.88;;;8.05;62.06
48614;BME280;34408;51.426;5.444;2024-03-07T09:07:56;102292.69;;;8.32;61.63
48614;BME280;34408;51.426;5.444;2024-03-07T09:10:24;102281.44;;;8.53;60.96
48614;BME280;34408;51.426;5.444;2024-03-07T09:12:53;102265.19;;;8.55;60.65
48614;BME280;34408;51.426;5.444;2024-03-07T09:15:21;102275.59;;;8.80;60.36
48614;BME280;34408;51.426;5.444;2024-03-07T09:17:51;102273.88;;;8.88;60.21
48614;BME280;34408;51.426;5.444;2024-03-07T09:20:20;102280.03;;;8.96;59.46
48614;BME280;34408;51.426;5.444;2024-03-07T09:22:52;102286.38;;;9.03;59.49
48614;BME280;34408;51.426;5.444;2024-03-07T09:25:22;102284.66;;;9.10;58.74
48614;BME280;34408;51.426;5.444;2024-03-07T09:27:51;102267.56;;;9.11;59.08
48614;BME280;34408;51.426;5.444;2024-03-07T09:30:21;102276.69;;;9.25;58.55
48614;BME280;34408;51.426;5.444;2024-03-07T09:32:53;102286.22;;;9.28;58.87
48614;BME280;34408;51.426;5.444;2024-03-07T09:35:22;102274.53;;;9.21;58.98
48614;BME280;34408;51.426;5.444;2024-03-07T09:37:52;102279.25;;;9.19;58.67
48614;BME280;34408;51.426;5.444;2024-03-07T09:40:22;102268.22;;;9.13;59.32
48614;BME280;34408;51.426;5.444;2024-03-07T09:42:54;102273.94;;;9.10;59.79
48614;BME280;34408;51.426;5.444;2024-03-07T09:45:29;102267.91;;;9.08;59.95
48614;BME280;34408;51.426;5.444;2024-03-07T09:47:58;102265.22;;;9.08;59.69
48614;BME280;34408;51.426;5.444;2024-03-07T09:50:29;102267.13;;;9.00;59.71
48614;BME280;34408;51.426;5.444;2024-03-07T09:53:00;102268.13;;;8.99;59.64
48614;BME280;34408;51.426;5.444;2024-03-07T09:55:30;102264.78;;;8.97;59.92
48614;BME280;34408;51.426;5.444;2024-03-07T09:58:00;102275.34;;;8.98;60.62
48614;BME280;34408;51.426;5.444;2024-03-07T10:00:28;102266.63;;;8.96;60.72
48614;BME280;34408;51.426;5.444;2024-03-07T10:02:59;102266.16;;;8.93;60.00
48614;BME280;34408;51.426;5.444;2024-03-07T10:05:30;102263.47;;;8.93;60.25
48614;BME280;34408;51.426;5.444;2024-03-07T10:08:00;102268.84;;;8.93;60.28
48614;BME280;34408;51.426;5.444;2024-03-07T10:10:29;102262.47;;;8.94;60.96
48614;BME280;34408;51.426;5.444;2024-03-07T10:12:58;102266.63;;;8.96;60.36
48614;BME280;34408;51.426;5.444;2024-03-07T10:15:28;102258.78;;;8.95;60.25
48614;BME280;34408;51.426;5.444;2024-03-07T10:17:57;102249.47;;;8.82;60.71
48614;BME280;34408;51.426;5.444;2024-03-07T10:20:26;102261.31;;;8.88;60.32
48614;BME280;34408;51.426;5.444;2024-03-07T10:22:55;102263.81;;;8.90;60.92
48614;BME280;34408;51.426;5.444;2024-03-07T10:25:25;102253.75;;;8.92;60.61
48614;BME280;34408;51.426;5.444;2024-03-07T10:27:56;102245.59;;;8.85;60.69
48614;BME280;34408;51.426;5.444;2024-03-07T10:30:27;102255.06;;;8.96;60.64
48614;BME280;34408;51.426;5.444;2024-03-07T10:32:56;102239.69;;;8.90;60.89
48614;BME280;34408;51.426;5.444;2024-03-07T10:35:26;102254.72;;;8.99;60.77
48614;BME280;34408;51.426;5.444;2024-03-07T10:37:57;102243.81;;;9.00;60.86
48614;BME280;34408;51.426;5.444;2024-03-07T10:40:30;102246.81;;;9.05;61.35
48614;BME280;34408;51.426;5.444;2024-03-07T10:42:59;102247.47;;;9.07;61.18
48614;BME280;34408;51.426;5.444;2024-03-07T10:45:30;102211.34;;;8.95;60.94
48614;BME280;34408;51.426;5.444;2024-03-07T10:48:03;102246.09;;;9.11;61.10
48614;BME280;34408;51.426;5.444;2024-03-07T10:50:43;102234.19;;;9.14;61.06
48614;BME280;34408;51.426;5.444;2024-03-07T10:53:19;102240.38;;;9.37;61.46
48614;BME280;34408;51.426;5.444;2024-03-07T10:58:57;102238.28;;;9.25;60.21
48614;BME280;34408;51.426;5.444;2024-03-07T11:01:30;102232.75;;;9.26;60.75
48614;BME280;34408;51.426;5.444;2024-03-07T11:03:59;102223.97;;;9.32;61.33
48614;BME280;34408;51.426;5.444;2024-03-07T11:06:31;102228.16;;;9.35;60.19
48614;BME280;34408;51.426;5.444;2024-03-07T11:09:02;102226.97;;;9.37;60.80
48614;BME280;34408;51.426;5.444;2024-03-07T11:11:39;102213.25;;;9.32;60.84
48614;BME280;34408;51.426;5.444;2024-03-07T11:14:10;102207.88;;;9.32;61.06
48614;BME280;34408;51.426;5.444;2024-03-07T11:16:39;102223.38;;;9.45;61.03
48614;BME280;34408;51.426;5.444;2024-03-07T11:19:18;102197.75;;;9.42;60.78
48614;BME280;34408;51.426;5.444;2024-03-07T11:21:48;102205.44;;;9.45;60.36
48614;BME280;34408;51.426;5.444;2024-03-07T11:24:23;102207.94;;;9.47;60.97
48614;BME280;34408;51.426;5.444;2024-03-07T11:26:55;102203.22;;;9.49;61.16
48614;BME280;34408;51.426;5.444;2024-03-07T11:29:38;102202.84;;;9.52;60.99
48614;BME280;34408;51.426;5.444;2024-03-07T11:32:10;102199.16;;;9.53;61.33
48614;BME280;34408;51.426;5.444;2024-03-07T11:34:41;102190.56;;;9.58;61.12
48614;BME280;34408;51.426;5.444;2024-03-07T11:37:09;102192.41;;;9.57;60.82
48614;BME280;34408;51.426;5.444;2024-03-07T11:39:45;102192.59;;;9.56;61.20
48614;BME280;34408;51.426;5.444;2024-03-07T11:42:24;102178.44;;;9.62;61.06
48614;BME280;34408;51.426;5.444;2024-03-07T11:44:58;102180.75;;;9.65;61.33
48614;BME280;34408;51.426;5.444;2024-03-07T11:47:34;102171.69;;;9.66;61.41
48614;BME280;34408;51.426;5.444;2024-03-07T11:50:03;102160.94;;;9.66;61.54
48614;BME280;34408;51.426;5.444;2024-03-07T11:52:35;102178.09;;;9.79;60.94
48614;BME280;34408;51.426;5.444;2024-03-07T11:55:05;102159.13;;;9.81;60.44
48614;BME280;34408;51.426;5.444;2024-03-07T11:57:35;102158.28;;;9.81;59.88
48614;BME280;34408;51.426;5.444;2024-03-07T12:00:05;102139.09;;;9.69;59.85
48614;BME280;34408;51.426;5.444;2024-03-07T12:02:37;102164.94;;;9.85;60.25
48614;BME280;34408;51.426;5.444;2024-03-07T12:05:06;102147.81;;;9.86;60.10
48614;BME280;34408;51.426;5.444;2024-03-07T12:07:35;102153.19;;;9.86;59.98
48614;BME280;34408;51.426;5.444;2024-03-07T12:10:03;102148.66;;;9.86;59.68
48614;BME280;34408;51.426;5.444;2024-03-07T12:12:32;102139.41;;;9.89;59.92
48614;BME280;34408;51.426;5.444;2024-03-07T12:15:03;102141.06;;;9.90;60.27
48614;BME280;34408;51.426;5.444;2024-03-07T12:17:36;102132.63;;;9.93;59.95
48614;BME280;34408;51.426;5.444;2024-03-07T12:20:07;102128.19;;;10.00;59.99
48614;BME280;34408;51.426;5.444;2024-03-07T12:22:55;102103.66;;;9.88;59.63
48614;BME280;34408;51.426;5.444;2024-03-07T12:25:23;102091.06;;;9.89;59.34
48614;BME280;34408;51.426;5.444;2024-03-07T12:28:06;102103.38;;;9.98;59.42
48614;BME280;34408;51.426;5.444;2024-03-07T12:30:49;102113.09;;;9.99;59.62
48614;BME280;34408;51.426;5.444;2024-03-07T12:33:18;102109.56;;;9.98;59.72
48614;BME280;34408;51.426;5.444;2024-03-07T12:35:47;102104.00;;;10.00;59.88
48614;BME280;34408;51.426;5.444;2024-03-07T12:38:17;102102.16;;;10.00;59.65
48614;BME280;34408;51.426;5.444;2024-03-07T12:40:46;102092.25;;;10.01;59.85
48614;BME280;34408;51.426;5.444;2024-03-07T12:43:16;102095.75;;;10.01;59.64
48614;BME280;34408;51.426;5.444;2024-03-07T12:45:48;102097.44;;;10.02;59.71
48614;BME280;34408;51.426;5.444;2024-03-07T12:48:17;102093.91;;;10.02;59.93
48614;BME280;34408;51.426;5.444;2024-03-07T12:50:49;102085.47;;;10.05;59.95
48614;BME280;34408;51.426;5.444;2024-03-07T12:53:20;102084.66;;;10.04;59.93
48614;BME280;34408;51.426;5.444;2024-03-07T12:55:49;102079.28;;;10.04;59.76
48614;BME280;34408;51.426;5.444;2024-03-07T12:58:18;102070.56;;;10.02;59.21
48614;BME280;34408;51.426;5.444;2024-03-07T13:00:50;102062.97;;;10.06;59.55
48614;BME280;34408;51.426;5.444;2024-03-07T13:03:18;102063.63;;;10.08;59.59
48614;BME280;34408;51.426;5.444;2024-03-07T13:05:47;102066.13;;;10.09;59.63
48614;BME280;34408;51.426;5.444;2024-03-07T13:08:15;102065.09;;;10.10;59.39
48614;BME280;34408;51.426;5.444;2024-03-07T13:10:43;102067.59;;;10.12;58.91
48614;BME280;34408;51.426;5.444;2024-03-07T13:13:15;102056.84;;;10.12;59.23
48614;BME280;34408;51.426;5.444;2024-03-07T13:15:43;102066.56;;;10.13;59.15